sensor_id;sensor_type;location;lat;lon;timestamp;P1;durP1;ratioP1;P2;durP2;ratioP2
11986;SDS011;6053;51.382;6.768;2023-09-07T00:00:10;1.50;;;1.40;;
11986;SDS011;6053;51.382;6.768;2023-09-07T00:02:39;2.70;;;1.17;;
11986;SDS011;6053;51.382;6.768;2023-09-07T00:05:08;1.83;;;1.52;;
11986;SDS011;6053;51.382;6.768;2023-09-07T00:07:38;1.85;;;1.45;;
11986;SDS011;6053;51.382;6.768;2023-09-07T00:10:18;1.47;;;1.37;;
11986;SDS011;6053;51.382;6.768;2023-09-07T00:12:50;2.30;;;1.30;;
11986;SDS011;6053;51.382;6.768;2023-09-07T00:15:18;1.98;;;1.60;;
11986;SDS011;6053;51.382;6.768;2023-09-07T00:17:47;1.40;;;1.30;;
11986;SDS011;6053;51.382;6.768;2023-09-07T00:20:20;1.60;;;1.40;;
11986;SDS011;6053;51.382;6.768;2023-09-07T00:22:51;2.13;;;1.40;;
11986;SDS011;6053;51.382;6.768;2023-09-07T00:25:22;1.10;;;1.10;;
11986;SDS011;6053;51.382;6.768;2023-09-07T00:27:56;1.40;;;1.30;;
11986;SDS011;6053;51.382;6.768;2023-09-07T00:30:25;1.38;;;1.33;;
11986;SDS011;6053;51.382;6.768;2023-09-07T00:32:56;1.40;;;1.30;;
11986;SDS011;6053;51.382;6.768;2023-09-07T00:35:31;1.35;;;1.25;;
11986;SDS011;6053;51.382;6.768;2023-09-07T00:38:01;2.10;;;1.30;;
11986;SDS011;6053;51.382;6.768;2023-09-07T00:40:29;1.35;;;1.27;;
11986;SDS011;6053;51.382;6.768;2023-09-07T00:43:00;2.90;;;1.30;;
11986;SDS011;6053;51.382;6.768;2023-09-07T00:45:28;1.42;;;1.33;;
11986;SDS011;6053;51.382;6.768;2023-09-07T00:48:00;1.30;;;1.20;;
11986;SDS011;6053;51.382;6.768;2023-09-07T00:50:29;1.52;;;1.42;;
11986;SDS011;6053;51.382;6.768;2023-09-07T00:52:57;1.25;;;1.15;;
11986;SDS011;6053;51.382;6.768;2023-09-07T00:55:29;1.50;;;1.40;;
11986;SDS011;6053;51.382;6.768;2023-09-07T00:58:04;1.35;;;1.30;;
11986;SDS011;6053;51.382;6.768;2023-09-07T01:00:33;1.30;;;1.20;;
11986;SDS011;6053;51.382;6.768;2023-09-07T01:03:02;1.50;;;1.30;;
11986;SDS011;6053;51.382;6.768;2023-09-07T01:05:32;1.58;;;1.40;;
11986;SDS011;6053;51.382;6.768;2023-09-07T01:08:17;1.50;;;1.30;;
11986;SDS011;6053;51.382;6.768;2023-09-07T01:10:53;2.20;;;1.20;;
11986;SDS011;6053;51.382;6.768;2023-09-07T01:13:22;1.30;;;1.20;;
11986;SDS011;6053;51.382;6.768;2023-09-07T01:15:53;1.80;;;1.30;;
11986;SDS011;6053;51.382;6.768;2023-09-07T01:18:28;1.58;;;1.30;;
11986;SDS011;6053;51.382;6.768;2023-09-07T01:20:57;1.23;;;1.13;;
11986;SDS011;6053;51.382;6.768;2023-09-07T01:23:30;1.40;;;1.30;;
11986;SDS011;6053;51.382;6.768;2023-09-07T01:25:59;1.13;;;1.10;;
11986;SDS011;6053;51.382;6.768;2023-09-07T01:28:30;1.40;;;1.30;;
11986;SDS011;6053;51.382;6.768;2023-09-07T01:30:59;3.08;;;1.38;;
11986;SDS011;6053;51.382;6.768;2023-09-07T01:33:31;1.55;;;1.40;;
11986;SDS011;6053;51.382;6.768;2023-09-07T01:35:59;1.40;;;1.30;;
11986;SDS011;6053;51.382;6.768;2023-09-07T01:38:30;1.35;;;1.25;;
11986;SDS011;6053;51.382;6.768;2023-09-07T01:41:03;2.07;;;1.30;;
11986;SDS011;6053;51.382;6.768;2023-09-07T01:43:32;2.05;;;1.33;;
11986;SDS011;6053;51.382;6.768;2023-09-07T01:46:01;1.90;;;1.33;;
11986;SDS011;6053;51.382;6.768;2023-09-07T01:48:29;1.50;;;1.40;;
11986;SDS011;6053;51.382;6.768;2023-09-07T01:50:58;2.33;;;1.55;;
11986;SDS011;6053;51.382;6.768;2023-09-07T01:53:29;2.25;;;1.40;;
11986;SDS011;6053;51.382;6.768;2023-09-07T01:55:59;1.40;;;1.30;;
11986;SDS011;6053;51.382;6.768;2023-09-07T01:58:31;1.40;;;1.30;;
11986;SDS011;6053;51.382;6.768;2023-09-07T02:01:04;1.90;;;1.30;;
11986;SDS011;6053;51.382;6.768;2023-09-07T02:03:32;1.98;;;1.52;;
11986;SDS011;6053;51.382;6.768;2023-09-07T02:06:01;1.45;;;1.35;;
11986;SDS011;6053;51.382;6.768;2023-09-07T02:08:32;1.17;;;1.10;;
11986;SDS011;6053;51.382;6.768;2023-09-07T02:11:04;1.33;;;1.23;;
11986;SDS011;6053;51.382;6.768;2023-09-07T02:13:43;1.23;;;1.23;;
11986;SDS011;6053;51.382;6.768;2023-09-07T02:16:14;1.40;;;1.30;;
11986;SDS011;6053;51.382;6.768;2023-09-07T02:18:44;1.50;;;1.40;;
11986;SDS011;6053;51.382;6.768;2023-09-07T02:21:17;1.42;;;1.40;;
11986;SDS011;6053;51.382;6.768;2023-09-07T02:23:45;1.40;;;1.30;;
11986;SDS011;6053;51.382;6.768;2023-09-07T02:26:20;1.40;;;1.30;;
11986;SDS011;6053;51.382;6.768;2023-09-07T02:28:49;1.60;;;1.20;;
11986;SDS011;6053;51.382;6.768;2023-09-07T02:31:17;2.00;;;1.60;;
11986;SDS011;6053;51.382;6.768;2023-09-07T02:33:46;2.17;;;1.42;;
11986;SDS011;6053;51.382;6.768;2023-09-07T02:36:16;1.42;;;1.33;;
11986;SDS011;6053;51.382;6.768;2023-09-07T02:38:48;1.23;;;1.20;;
11986;SDS011;6053;51.382;6.768;2023-09-07T02:41:18;1.53;;;1.37;;
11986;SDS011;6053;51.382;6.768;2023-09-07T02:43:46;1.55;;;1.35;;
11986;SDS011;6053;51.382;6.768;2023-09-07T02:46:14;1.50;;;1.40;;
11986;SDS011;6053;51.382;6.768;2023-09-07T02:48:45;2.78;;;1.30;;
11986;SDS011;6053;51.382;6.768;2023-09-07T02:51:16;2.42;;;1.30;;
11986;SDS011;6053;51.382;6.768;2023-09-07T02:53:45;1.67;;;1.27;;
11986;SDS011;6053;51.382;6.768;2023-09-07T02:56:19;1.43;;;1.33;;
11986;SDS011;6053;51.382;6.768;2023-09-07T02:58:50;1.95;;;1.50;;
11986;SDS011;6053;51.382;6.768;2023-09-07T03:01:19;1.77;;;1.38;;
11986;SDS011;6053;51.382;6.768;2023-09-07T03:03:48;1.80;;;1.40;;
11986;SDS011;6053;51.382;6.768;2023-09-07T03:06:17;1.40;;;1.30;;
11986;SDS011;6053;51.382;6.768;2023-09-07T03:08:54;1.13;;;1.13;;
11986;SDS011;6053;51.382;6.768;2023-09-07T03:11:25;1.20;;;1.20;;
11986;SDS011;6053;51.382;6.768;2023-09-07T03:13:56;1.40;;;1.30;;
11986;SDS011;6053;51.382;6.768;2023-09-07T03:16:24;2.15;;;1.50;;
11986;SDS011;6053;51.382;6.768;2023-09-07T03:18:59;1.30;;;1.20;;
11986;SDS011;6053;51.382;6.768;2023-09-07T03:21:30;3.05;;;1.25;;
11986;SDS011;6053;51.382;6.768;2023-09-07T03:24:00;1.42;;;1.33;;
11986;SDS011;6053;51.382;6.768;2023-09-07T03:26:29;1.80;;;1.40;;
11986;SDS011;6053;51.382;6.768;2023-09-07T03:28:58;1.40;;;1.30;;
11986;SDS011;6053;51.382;6.768;2023-09-07T03:31:30;1.40;;;1.30;;
11986;SDS011;6053;51.382;6.768;2023-09-07T03:34:04;1.60;;;1.48;;
11986;SDS011;6053;51.382;6.768;2023-09-07T03:36:38;2.00;;;1.40;;
11986;SDS011;6053;51.382;6.768;2023-09-07T03:39:06;1.30;;;1.20;;
11986;SDS011;6053;51.382;6.768;2023-09-07T03:41:37;2.50;;;1.30;;
11986;SDS011;6053;51.382;6.768;2023-09-07T03:44:09;2.77;;;1.30;;
11986;SDS011;6053;51.382;6.768;2023-09-07T03:46:37;2.65;;;1.45;;
11986;SDS011;6053;51.382;6.768;2023-09-07T03:49:15;1.97;;;1.50;;
11986;SDS011;6053;51.382;6.768;2023-09-07T03:51:43;1.60;;;1.50;;
11986;SDS011;6053;51.382;6.768;2023-09-07T03:54:14;1.33;;;1.23;;
11986;SDS011;6053;51.382;6.768;2023-09-07T03:56:44;1.70;;;1.52;;
11986;SDS011;6053;51.382;6.768;2023-09-07T03:59:12;1.60;;;1.35;;
11986;SDS011;6053;51.382;6.768;2023-09-07T04:01:41;1.20;;;1.20;;
11986;SDS011;6053;51.382;6.768;2023-09-07T04:04:09;1.50;;;1.40;;
11986;SDS011;6053;51.382;6.768;2023-09-07T04:06:38;1.70;;;1.42;;
11986;SDS011;6053;51.382;6.768;2023-09-07T04:09:09;1.52;;;1.42;;
11986;SDS011;6053;51.382;6.768;2023-09-07T04:11:38;1.63;;;1.30;;
11986;SDS011;6053;51.382;6.768;2023-09-07T04:14:10;1.42;;;1.25;;
11986;SDS011;6053;51.382;6.768;2023-09-07T04:16:39;1.48;;;1.30;;
11986;SDS011;6053;51.382;6.768;2023-09-07T04:19:09;1.40;;;1.30;;
11986;SDS011;6053;51.382;6.768;2023-09-07T04:21:50;1.52;;;1.42;;
11986;SDS011;6053;51.382;6.768;2023-09-07T04:24:18;1.60;;;1.50;;
11986;SDS011;6053;51.382;6.768;2023-09-07T04:26:47;1.60;;;1.50;;
11986;SDS011;6053;51.382;6.768;2023-09-07T04:29:23;1.42;;;1.33;;
11986;SDS011;6053;51.382;6.768;2023-09-07T04:31:51;1.48;;;1.38;;
11986;SDS011;6053;51.382;6.768;2023-09-07T04:34:30;1.40;;;1.30;;
11986;SDS011;6053;51.382;6.768;2023-09-07T04:36:58;1.70;;;1.50;;
11986;SDS011;6053;51.382;6.768;2023-09-07T04:39:30;1.50;;;1.40;;
11986;SDS011;6053;51.382;6.768;2023-09-07T04:41:58;1.60;;;1.50;;
11986;SDS011;6053;51.382;6.768;2023-09-07T04:44:28;1.85;;;1.50;;
11986;SDS011;6053;51.382;6.768;2023-09-07T04:46:56;1.60;;;1.50;;
11986;SDS011;6053;51.382;6.768;2023-09-07T04:49:24;2.17;;;1.75;;
11986;SDS011;6053;51.382;6.768;2023-09-07T04:51:53;1.95;;;1.70;;
11986;SDS011;6053;51.382;6.768;2023-09-07T04:54:38;1.80;;;1.70;;
11986;SDS011;6053;51.382;6.768;2023-09-07T04:57:07;2.95;;;1.60;;
11986;SDS011;6053;51.382;6.768;2023-09-07T04:59:36;2.47;;;1.60;;
11986;SDS011;6053;51.382;6.768;2023-09-07T05:02:05;1.60;;;1.50;;
11986;SDS011;6053;51.382;6.768;2023-09-07T05:04:39;2.15;;;1.58;;
11986;SDS011;6053;51.382;6.768;2023-09-07T05:07:10;3.70;;;2.08;;
11986;SDS011;6053;51.382;6.768;2023-09-07T05:09:38;5.45;;;2.22;;
11986;SDS011;6053;51.382;6.768;2023-09-07T05:12:13;1.90;;;1.80;;
11986;SDS011;6053;51.382;6.768;2023-09-07T05:14:53;3.47;;;1.70;;
11986;SDS011;6053;51.382;6.768;2023-09-07T05:17:22;1.67;;;1.58;;
11986;SDS011;6053;51.382;6.768;2023-09-07T05:19:51;1.75;;;1.65;;
11986;SDS011;6053;51.382;6.768;2023-09-07T05:22:19;15.43;;;2.23;;
11986;SDS011;6053;51.382;6.768;2023-09-07T05:25:01;3.40;;;1.58;;
11986;SDS011;6053;51.382;6.768;2023-09-07T05:27:36;2.10;;;1.63;;
11986;SDS011;6053;51.382;6.768;2023-09-07T05:30:14;2.80;;;1.70;;
11986;SDS011;6053;51.382;6.768;2023-09-07T05:32:42;3.40;;;1.80;;
11986;SDS011;6053;51.382;6.768;2023-09-07T05:35:12;5.07;;;1.80;;
11986;SDS011;6053;51.382;6.768;2023-09-07T05:37:46;3.10;;;1.90;;
11986;SDS011;6053;51.382;6.768;2023-09-07T05:40:18;3.83;;;1.90;;
11986;SDS011;6053;51.382;6.768;2023-09-07T05:42:50;2.67;;;2.28;;
11986;SDS011;6053;51.382;6.768;2023-09-07T05:45:20;8.43;;;6.20;;
11986;SDS011;6053;51.382;6.768;2023-09-07T05:47:51;7.60;;;5.25;;
11986;SDS011;6053;51.382;6.768;2023-09-07T05:50:19;4.65;;;3.97;;
11986;SDS011;6053;51.382;6.768;2023-09-07T05:52:48;3.70;;;3.40;;
11986;SDS011;6053;51.382;6.768;2023-09-07T05:55:16;3.90;;;2.67;;
11986;SDS011;6053;51.382;6.768;2023-09-07T05:57:48;3.10;;;2.20;;
11986;SDS011;6053;51.382;6.768;2023-09-07T06:00:23;2.40;;;2.17;;
11986;SDS011;6053;51.382;6.768;2023-09-07T06:02:52;3.58;;;2.13;;
11986;SDS011;6053;51.382;6.768;2023-09-07T06:05:21;3.60;;;1.80;;
11986;SDS011;6053;51.382;6.768;2023-09-07T06:07:50;2.30;;;1.92;;
11986;SDS011;6053;51.382;6.768;2023-09-07T06:10:21;2.63;;;1.80;;
11986;SDS011;6053;51.382;6.768;2023-09-07T06:12:49;2.17;;;1.87;;
11986;SDS011;6053;51.382;6.768;2023-09-07T06:15:18;2.83;;;1.80;;
11986;SDS011;6053;51.382;6.768;2023-09-07T06:17:55;1.70;;;1.60;;
11986;SDS011;6053;51.382;6.768;2023-09-07T06:20:24;1.83;;;1.73;;
11986;SDS011;6053;51.382;6.768;2023-09-07T06:22:53;2.17;;;1.85;;
11986;SDS011;6053;51.382;6.768;2023-09-07T06:25:31;2.00;;;1.40;;
11986;SDS011;6053;51.382;6.768;2023-09-07T06:27:59;2.30;;;1.50;;
11986;SDS011;6053;51.382;6.768;2023-09-07T06:30:28;1.70;;;1.30;;
11986;SDS011;6053;51.382;6.768;2023-09-07T06:32:58;1.70;;;1.40;;
11986;SDS011;6053;51.382;6.768;2023-09-07T06:35:27;3.38;;;1.58;;
11986;SDS011;6053;51.382;6.768;2023-09-07T06:38:04;2.63;;;1.50;;
11986;SDS011;6053;51.382;6.768;2023-09-07T06:40:32;2.78;;;1.70;;
11986;SDS011;6053;51.382;6.768;2023-09-07T06:43:01;1.90;;;1.40;;
11986;SDS011;6053;51.382;6.768;2023-09-07T06:45:33;2.75;;;1.50;;
11986;SDS011;6053;51.382;6.768;2023-09-07T06:48:04;2.53;;;1.70;;
11986;SDS011;6053;51.382;6.768;2023-09-07T06:50:33;1.60;;;1.48;;
11986;SDS011;6053;51.382;6.768;2023-09-07T06:53:02;2.20;;;1.50;;
11986;SDS011;6053;51.382;6.768;2023-09-07T06:55:33;2.50;;;1.50;;
11986;SDS011;6053;51.382;6.768;2023-09-07T06:58:09;3.55;;;1.52;;
11986;SDS011;6053;51.382;6.768;2023-09-07T07:00:37;2.10;;;1.40;;
11986;SDS011;6053;51.382;6.768;2023-09-07T07:03:07;2.20;;;1.65;;
11986;SDS011;6053;51.382;6.768;2023-09-07T07:05:35;1.30;;;1.30;;
11986;SDS011;6053;51.382;6.768;2023-09-07T07:08:04;1.50;;;1.40;;
11986;SDS011;6053;51.382;6.768;2023-09-07T07:10:32;2.10;;;1.53;;
11986;SDS011;6053;51.382;6.768;2023-09-07T07:13:03;2.97;;;1.58;;
11986;SDS011;6053;51.382;6.768;2023-09-07T07:15:31;1.65;;;1.50;;
11986;SDS011;6053;51.382;6.768;2023-09-07T07:18:19;1.65;;;1.55;;
11986;SDS011;6053;51.382;6.768;2023-09-07T07:20:47;1.55;;;1.40;;
11986;SDS011;6053;51.382;6.768;2023-09-07T07:23:18;1.92;;;1.30;;
11986;SDS011;6053;51.382;6.768;2023-09-07T07:25:55;1.80;;;1.40;;
11986;SDS011;6053;51.382;6.768;2023-09-07T07:28:23;2.92;;;1.20;;
11986;SDS011;6053;51.382;6.768;2023-09-07T07:30:58;1.67;;;1.50;;
11986;SDS011;6053;51.382;6.768;2023-09-07T07:33:38;3.35;;;1.50;;
11986;SDS011;6053;51.382;6.768;2023-09-07T07:36:06;1.60;;;1.50;;
11986;SDS011;6053;51.382;6.768;2023-09-07T07:38:35;1.45;;;1.30;;
11986;SDS011;6053;51.382;6.768;2023-09-07T07:41:03;1.63;;;1.50;;
11986;SDS011;6053;51.382;6.768;2023-09-07T07:43:32;2.28;;;1.60;;
11986;SDS011;6053;51.382;6.768;2023-09-07T07:46:01;2.13;;;1.27;;
11986;SDS011;6053;51.382;6.768;2023-09-07T07:48:38;3.55;;;1.80;;
11986;SDS011;6053;51.382;6.768;2023-09-07T07:51:12;2.15;;;1.40;;
11986;SDS011;6053;51.382;6.768;2023-09-07T07:53:43;2.33;;;1.60;;
11986;SDS011;6053;51.382;6.768;2023-09-07T07:56:14;4.00;;;1.50;;
11986;SDS011;6053;51.382;6.768;2023-09-07T07:58:43;3.63;;;1.60;;
11986;SDS011;6053;51.382;6.768;2023-09-07T08:01:14;2.67;;;1.50;;
11986;SDS011;6053;51.382;6.768;2023-09-07T08:03:48;2.50;;;1.53;;
11986;SDS011;6053;51.382;6.768;2023-09-07T08:06:18;2.60;;;1.40;;
11986;SDS011;6053;51.382;6.768;2023-09-07T08:08:55;1.48;;;1.38;;
11986;SDS011;6053;51.382;6.768;2023-09-07T08:11:26;1.42;;;1.33;;
11986;SDS011;6053;51.382;6.768;2023-09-07T08:13:54;2.10;;;1.30;;
11986;SDS011;6053;51.382;6.768;2023-09-07T08:16:23;1.50;;;1.20;;
11986;SDS011;6053;51.382;6.768;2023-09-07T08:18:53;1.98;;;1.40;;
11986;SDS011;6053;51.382;6.768;2023-09-07T08:21:22;1.50;;;1.40;;
11986;SDS011;6053;51.382;6.768;2023-09-07T08:23:50;1.80;;;1.40;;
11986;SDS011;6053;51.382;6.768;2023-09-07T08:26:19;4.13;;;2.40;;
11986;SDS011;6053;51.382;6.768;2023-09-07T08:28:48;1.40;;;1.30;;
11986;SDS011;6053;51.382;6.768;2023-09-07T08:31:16;3.05;;;1.40;;
11986;SDS011;6053;51.382;6.768;2023-09-07T08:33:52;1.40;;;1.30;;
11986;SDS011;6053;51.382;6.768;2023-09-07T08:36:21;1.80;;;1.20;;
11986;SDS011;6053;51.382;6.768;2023-09-07T08:38:50;2.97;;;1.20;;
11986;SDS011;6053;51.382;6.768;2023-09-07T08:41:20;2.42;;;1.23;;
11986;SDS011;6053;51.382;6.768;2023-09-07T08:43:49;2.30;;;1.20;;
11986;SDS011;6053;51.382;6.768;2023-09-07T08:46:23;1.38;;;1.10;;
11986;SDS011;6053;51.382;6.768;2023-09-07T08:48:53;1.38;;;1.30;;
11986;SDS011;6053;51.382;6.768;2023-09-07T08:51:27;2.05;;;1.35;;
11986;SDS011;6053;51.382;6.768;2023-09-07T08:53:56;2.92;;;1.30;;
11986;SDS011;6053;51.382;6.768;2023-09-07T08:56:27;1.90;;;1.20;;
11986;SDS011;6053;51.382;6.768;2023-09-07T08:58:56;1.40;;;1.30;;
11986;SDS011;6053;51.382;6.768;2023-09-07T09:01:24;1.20;;;1.10;;
11986;SDS011;6053;51.382;6.768;2023-09-07T09:03:59;1.83;;;1.33;;
11986;SDS011;6053;51.382;6.768;2023-09-07T09:06:31;3.78;;;1.10;;
11986;SDS011;6053;51.382;6.768;2023-09-07T09:08:59;1.40;;;1.30;;
11986;SDS011;6053;51.382;6.768;2023-09-07T09:11:28;1.40;;;1.13;;
11986;SDS011;6053;51.382;6.768;2023-09-07T09:13:59;2.67;;;1.10;;
11986;SDS011;6053;51.382;6.768;2023-09-07T09:16:27;1.40;;;1.30;;
11986;SDS011;6053;51.382;6.768;2023-09-07T09:19:03;1.30;;;1.20;;
11986;SDS011;6053;51.382;6.768;2023-09-07T09:21:31;1.70;;;1.30;;
11986;SDS011;6053;51.382;6.768;2023-09-07T09:24:00;1.45;;;1.33;;
11986;SDS011;6053;51.382;6.768;2023-09-07T09:26:28;2.60;;;1.27;;
11986;SDS011;6053;51.382;6.768;2023-09-07T09:28:57;3.53;;;1.42;;
11986;SDS011;6053;51.382;6.768;2023-09-07T09:31:27;1.40;;;1.20;;
11986;SDS011;6053;51.382;6.768;2023-09-07T09:33:56;3.10;;;1.40;;
11986;SDS011;6053;51.382;6.768;2023-09-07T09:36:33;2.30;;;1.40;;
11986;SDS011;6053;51.382;6.768;2023-09-07T09:39:03;1.70;;;1.50;;
11986;SDS011;6053;51.382;6.768;2023-09-07T09:41:32;1.45;;;1.35;;
11986;SDS011;6053;51.382;6.768;2023-09-07T09:44:08;1.45;;;1.25;;
11986;SDS011;6053;51.382;6.768;2023-09-07T09:46:37;1.50;;;1.30;;
11986;SDS011;6053;51.382;6.768;2023-09-07T09:49:07;1.40;;;1.20;;
11986;SDS011;6053;51.382;6.768;2023-09-07T09:51:40;1.60;;;1.30;;
11986;SDS011;6053;51.382;6.768;2023-09-07T09:54:10;3.17;;;1.20;;
11986;SDS011;6053;51.382;6.768;2023-09-07T09:56:40;1.40;;;1.30;;
11986;SDS011;6053;51.382;6.768;2023-09-07T09:59:09;1.30;;;1.20;;
11986;SDS011;6053;51.382;6.768;2023-09-07T10:01:41;1.27;;;1.20;;
11986;SDS011;6053;51.382;6.768;2023-09-07T10:04:14;1.70;;;1.33;;
11986;SDS011;6053;51.382;6.768;2023-09-07T10:06:54;1.20;;;1.10;;
11986;SDS011;6053;51.382;6.768;2023-09-07T10:09:28;1.23;;;1.23;;
11986;SDS011;6053;51.382;6.768;2023-09-07T10:11:59;1.48;;;0.98;;
11986;SDS011;6053;51.382;6.768;2023-09-07T10:14:43;1.30;;;1.02;;
11986;SDS011;6053;51.382;6.768;2023-09-07T10:17:23;1.80;;;1.20;;
11986;SDS011;6053;51.382;6.768;2023-09-07T10:20:01;1.70;;;1.17;;
11986;SDS011;6053;51.382;6.768;2023-09-07T10:22:34;1.83;;;1.20;;
11986;SDS011;6053;51.382;6.768;2023-09-07T10:25:05;1.15;;;1.05;;
11986;SDS011;6053;51.382;6.768;2023-09-07T10:27:44;1.70;;;0.85;;
11986;SDS011;6053;51.382;6.768;2023-09-07T10:30:13;1.30;;;1.20;;
11986;SDS011;6053;51.382;6.768;2023-09-07T10:32:45;1.35;;;1.25;;
11986;SDS011;6053;51.382;6.768;2023-09-07T10:35:18;1.40;;;1.13;;
11986;SDS011;6053;51.382;6.768;2023-09-07T10:37:49;1.45;;;0.90;;
11986;SDS011;6053;51.382;6.768;2023-09-07T10:40:21;2.40;;;1.23;;
11986;SDS011;6053;51.382;6.768;2023-09-07T10:43:00;4.63;;;1.13;;
11986;SDS011;6053;51.382;6.768;2023-09-07T10:45:29;1.47;;;1.37;;
11986;SDS011;6053;51.382;6.768;2023-09-07T10:47:57;1.27;;;1.17;;
11986;SDS011;6053;51.382;6.768;2023-09-07T10:50:26;1.15;;;0.90;;
11986;SDS011;6053;51.382;6.768;2023-09-07T10:52:59;3.78;;;1.30;;
11986;SDS011;6053;51.382;6.768;2023-09-07T10:55:34;1.42;;;0.98;;
11986;SDS011;6053;51.382;6.768;2023-09-07T10:58:06;1.02;;;0.98;;
11986;SDS011;6053;51.382;6.768;2023-09-07T11:00:35;1.40;;;1.17;;
11986;SDS011;6053;51.382;6.768;2023-09-07T11:03:07;0.60;;;0.60;;
11986;SDS011;6053;51.382;6.768;2023-09-07T11:05:37;1.10;;;1.10;;
11986;SDS011;6053;51.382;6.768;2023-09-07T11:08:15;1.17;;;1.07;;
11986;SDS011;6053;51.382;6.768;2023-09-07T11:10:43;1.00;;;1.00;;
11986;SDS011;6053;51.382;6.768;2023-09-07T11:13:19;2.00;;;1.13;;
11986;SDS011;6053;51.382;6.768;2023-09-07T11:15:49;1.25;;;1.10;;
11986;SDS011;6053;51.382;6.768;2023-09-07T11:18:22;1.40;;;1.00;;
11986;SDS011;6053;51.382;6.768;2023-09-07T11:20:52;0.98;;;0.88;;
11986;SDS011;6053;51.382;6.768;2023-09-07T11:23:22;1.38;;;1.20;;
11986;SDS011;6053;51.382;6.768;2023-09-07T11:25:51;4.43;;;2.92;;
11986;SDS011;6053;51.382;6.768;2023-09-07T11:28:22;1.80;;;1.33;;
11986;SDS011;6053;51.382;6.768;2023-09-07T11:30:51;1.70;;;1.35;;
11986;SDS011;6053;51.382;6.768;2023-09-07T11:33:21;1.77;;;1.37;;
11986;SDS011;6053;51.382;6.768;2023-09-07T11:35:50;1.40;;;1.20;;
11986;SDS011;6053;51.382;6.768;2023-09-07T11:38:28;1.00;;;1.00;;
11986;SDS011;6053;51.382;6.768;2023-09-07T11:40:57;1.10;;;0.90;;
11986;SDS011;6053;51.382;6.768;2023-09-07T11:43:26;1.10;;;1.10;;
11986;SDS011;6053;51.382;6.768;2023-09-07T11:45:54;2.10;;;1.30;;
11986;SDS011;6053;51.382;6.768;2023-09-07T11:48:25;1.10;;;1.00;;
11986;SDS011;6053;51.382;6.768;2023-09-07T11:50:58;1.77;;;0.88;;
11986;SDS011;6053;51.382;6.768;2023-09-07T11:53:35;1.27;;;1.17;;
11986;SDS011;6053;51.382;6.768;2023-09-07T11:56:03;1.25;;;0.80;;
11986;SDS011;6053;51.382;6.768;2023-09-07T11:58:37;1.63;;;1.10;;
11986;SDS011;6053;51.382;6.768;2023-09-07T12:01:10;1.30;;;1.20;;
11986;SDS011;6053;51.382;6.768;2023-09-07T12:03:38;2.03;;;1.13;;
11986;SDS011;6053;51.382;6.768;2023-09-07T12:06:07;1.10;;;1.00;;
11986;SDS011;6053;51.382;6.768;2023-09-07T12:08:37;0.80;;;0.80;;
11986;SDS011;6053;51.382;6.768;2023-09-07T12:11:05;1.63;;;0.90;;
11986;SDS011;6053;51.382;6.768;2023-09-07T12:13:43;0.80;;;0.80;;
11986;SDS011;6053;51.382;6.768;2023-09-07T12:16:17;1.05;;;0.95;;
11986;SDS011;6053;51.382;6.768;2023-09-07T12:18:46;1.63;;;1.02;;
11986;SDS011;6053;51.382;6.768;2023-09-07T12:21:14;1.23;;;1.00;;
11986;SDS011;6053;51.382;6.768;2023-09-07T12:23:44;1.00;;;0.90;;
11986;SDS011;6053;51.382;6.768;2023-09-07T12:26:12;0.87;;;0.87;;
11986;SDS011;6053;51.382;6.768;2023-09-07T12:28:43;1.33;;;0.93;;
11986;SDS011;6053;51.382;6.768;2023-09-07T12:31:12;1.50;;;0.98;;
11986;SDS011;6053;51.382;6.768;2023-09-07T12:33:41;2.70;;;1.13;;
11986;SDS011;6053;51.382;6.768;2023-09-07T12:36:10;1.45;;;1.00;;
11986;SDS011;6053;51.382;6.768;2023-09-07T12:38:39;3.30;;;0.82;;
11986;SDS011;6053;51.382;6.768;2023-09-07T12:41:08;0.90;;;0.75;;
11986;SDS011;6053;51.382;6.768;2023-09-07T12:43:37;1.00;;;1.00;;
11986;SDS011;6053;51.382;6.768;2023-09-07T12:46:05;1.52;;;1.00;;
11986;SDS011;6053;51.382;6.768;2023-09-07T12:48:37;2.40;;;0.82;;
11986;SDS011;6053;51.382;6.768;2023-09-07T12:51:08;2.10;;;1.02;;
11986;SDS011;6053;51.382;6.768;2023-09-07T12:53:36;1.10;;;0.93;;
11986;SDS011;6053;51.382;6.768;2023-09-07T12:56:09;1.20;;;0.90;;
11986;SDS011;6053;51.382;6.768;2023-09-07T12:58:37;1.00;;;0.90;;
11986;SDS011;6053;51.382;6.768;2023-09-07T13:01:08;1.42;;;1.08;;
11986;SDS011;6053;51.382;6.768;2023-09-07T13:03:37;1.38;;;0.93;;
11986;SDS011;6053;51.382;6.768;2023-09-07T13:06:06;2.08;;;1.00;;
11986;SDS011;6053;51.382;6.768;2023-09-07T13:08:37;1.10;;;1.00;;
11986;SDS011;6053;51.382;6.768;2023-09-07T13:11:06;0.90;;;0.90;;
11986;SDS011;6053;51.382;6.768;2023-09-07T13:13:45;0.90;;;0.90;;
11986;SDS011;6053;51.382;6.768;2023-09-07T13:16:16;1.83;;;1.10;;
11986;SDS011;6053;51.382;6.768;2023-09-07T13:18:44;1.00;;;0.90;;
11986;SDS011;6053;51.382;6.768;2023-09-07T13:21:15;1.13;;;1.00;;
11986;SDS011;6053;51.382;6.768;2023-09-07T13:23:44;1.20;;;1.10;;
11986;SDS011;6053;51.382;6.768;2023-09-07T13:26:13;1.15;;;1.05;;
11986;SDS011;6053;51.382;6.768;2023-09-07T13:28:42;1.97;;;0.90;;
11986;SDS011;6053;51.382;6.768;2023-09-07T13:31:11;1.38;;;0.90;;
11986;SDS011;6053;51.382;6.768;2023-09-07T13:33:39;2.22;;;1.00;;
11986;SDS011;6053;51.382;6.768;2023-09-07T13:36:13;1.08;;;0.90;;
11986;SDS011;6053;51.382;6.768;2023-09-07T13:38:43;2.30;;;1.20;;
11986;SDS011;6053;51.382;6.768;2023-09-07T13:41:21;1.08;;;0.93;;
11986;SDS011;6053;51.382;6.768;2023-09-07T13:43:53;1.13;;;1.02;;
11986;SDS011;6053;51.382;6.768;2023-09-07T13:46:23;1.02;;;1.02;;
11986;SDS011;6053;51.382;6.768;2023-09-07T13:48:51;1.45;;;1.00;;
11986;SDS011;6053;51.382;6.768;2023-09-07T13:51:20;1.75;;;1.00;;
11986;SDS011;6053;51.382;6.768;2023-09-07T13:53:48;1.20;;;1.10;;
11986;SDS011;6053;51.382;6.768;2023-09-07T13:56:17;2.07;;;1.07;;
11986;SDS011;6053;51.382;6.768;2023-09-07T13:58:46;1.77;;;1.20;;
11986;SDS011;6053;51.382;6.768;2023-09-07T14:01:18;1.10;;;1.10;;
11986;SDS011;6053;51.382;6.768;2023-09-07T14:03:50;2.40;;;1.10;;
11986;SDS011;6053;51.382;6.768;2023-09-07T14:06:21;1.40;;;1.20;;
11986;SDS011;6053;51.382;6.768;2023-09-07T14:08:50;2.17;;;1.30;;
11986;SDS011;6053;51.382;6.768;2023-09-07T14:11:24;1.20;;;1.10;;
11986;SDS011;6053;51.382;6.768;2023-09-07T14:13:52;1.20;;;1.10;;
11986;SDS011;6053;51.382;6.768;2023-09-07T14:16:22;1.80;;;1.13;;
11986;SDS011;6053;51.382;6.768;2023-09-07T14:18:51;1.13;;;1.13;;
11986;SDS011;6053;51.382;6.768;2023-09-07T14:21:19;1.40;;;1.13;;
11986;SDS011;6053;51.382;6.768;2023-09-07T14:23:48;0.80;;;0.80;;
11986;SDS011;6053;51.382;6.768;2023-09-07T14:26:16;3.17;;;1.23;;
11986;SDS011;6053;51.382;6.768;2023-09-07T14:28:47;1.00;;;1.00;;
11986;SDS011;6053;51.382;6.768;2023-09-07T14:31:16;1.65;;;1.20;;
11986;SDS011;6053;51.382;6.768;2023-09-07T14:34:06;1.73;;;1.20;;
11986;SDS011;6053;51.382;6.768;2023-09-07T14:36:34;2.43;;;1.10;;
11986;SDS011;6053;51.382;6.768;2023-09-07T14:39:05;2.13;;;1.20;;
11986;SDS011;6053;51.382;6.768;2023-09-07T14:41:34;1.20;;;1.10;;
11986;SDS011;6053;51.382;6.768;2023-09-07T14:44:03;3.90;;;1.38;;
11986;SDS011;6053;51.382;6.768;2023-09-07T14:46:32;1.00;;;0.95;;
11986;SDS011;6053;51.382;6.768;2023-09-07T14:49:00;1.13;;;1.08;;
11986;SDS011;6053;51.382;6.768;2023-09-07T14:51:30;2.05;;;1.10;;
11986;SDS011;6053;51.382;6.768;2023-09-07T14:54:01;3.20;;;1.30;;
11986;SDS011;6053;51.382;6.768;2023-09-07T14:56:29;1.35;;;1.25;;
11986;SDS011;6053;51.382;6.768;2023-09-07T14:59:01;0.90;;;0.90;;
11986;SDS011;6053;51.382;6.768;2023-09-07T15:01:33;1.30;;;1.20;;
11986;SDS011;6053;51.382;6.768;2023-09-07T15:04:05;2.00;;;1.47;;
11986;SDS011;6053;51.382;6.768;2023-09-07T15:06:35;1.15;;;1.05;;
11986;SDS011;6053;51.382;6.768;2023-09-07T15:09:03;0.93;;;0.88;;
11986;SDS011;6053;51.382;6.768;2023-09-07T15:11:36;1.50;;;1.17;;
11986;SDS011;6053;51.382;6.768;2023-09-07T15:14:06;1.40;;;1.30;;
11986;SDS011;6053;51.382;6.768;2023-09-07T15:16:34;2.45;;;1.25;;
11986;SDS011;6053;51.382;6.768;2023-09-07T15:19:06;2.33;;;1.30;;
11986;SDS011;6053;51.382;6.768;2023-09-07T15:21:36;1.15;;;1.00;;